Terminal Aerodrome Forecast
Issued by NWS

Home | Current Version | Previous Version | Text Only | Print | Product List | Glossary On
Versions: 1 2 3 4 5 6 7 8 9 10 11 12 13 14 15 16 17 18 19 20 21 22 23 24
000
FTUS46 KMFR 032339
TAFOTH
TAF
KOTH 032339Z 0400/0424 34011G17KT P6SM SKC
     FM040300 36008KT P6SM OVC015
     FM040600 35005KT P6SM OVC008
     FM041800 36014KT P6SM OVC012
     FM042000 36018G30KT P6SM SCT012=

USA.gov is the U.S. government's official web portal to all federal, state and local government web resources and services.